Time;durP1;ratioP1;P1;durP2;ratioP2;P2;SDS_P1;SDS_P2;PMS_P1;PMS_P2;Temp;Humidity;BMP_temperature;BMP_pressure;BME280_temperature;BME280_humidity;BME280_pressure;Samples;Min_cycle;Max_cycle;Signal;HPM_P1;HPM_P2
2022/06/03 00:04:53;;;;;;;2.50;2.23;;;;;;;6.57;100.00;97153.28;10329195;28;20265;-50
2022/06/03 00:10:25;;;;;;;3.63;2.50;;;;;;;6.53;100.00;97146.69;10330863;28;20241;-50
2022/06/03 00:15:41;;;;;;;3.30;2.83;;;;;;;6.49;100.00;97155.69;10306882;28;20217;-50
2022/06/03 00:20:48;;;;;;;2.93;2.63;;;;;;;6.42;100.00;97157.94;10329836;28;20217;-50
2022/06/03 00:26:19;;;;;;;2.40;2.20;;;;;;;6.36;100.00;97158.44;10329765;28;20256;-51
2022/06/03 00:31:52;;;;;;;5.00;2.80;;;;;;;6.31;100.00;97157.94;10328742;28;20210;-52
2022/06/03 00:37:07;;;;;;;5.13;2.50;;;;;;;6.28;100.00;97152.97;10327209;28;20210;-53
2022/06/03 00:42:26;;;;;;;2.57;2.40;;;;;;;6.46;100.00;97154.13;10328385;28;20364;-53
2022/06/03 00:48:04;;;;;;;3.77;2.30;;;;;;;6.47;100.00;97137.59;10329115;28;20252;-50
2022/06/03 00:53:29;;;;;;;2.80;2.60;;;;;;;6.50;100.00;97142.53;10329498;28;20779;-53
2022/06/03 00:58:43;;;;;;;2.87;2.67;;;;;;;6.42;100.00;97135.34;10329065;28;20244;-51
2022/06/03 01:04:09;;;;;;;2.10;2.00;;;;;;;6.54;100.00;97128.34;10329082;28;20275;-51
2022/06/03 01:09:35;;;;;;;2.33;2.20;;;;;;;6.37;100.00;97132.28;10329058;28;20186;-50
2022/06/03 01:14:58;;;;;;;3.03;2.67;;;;;;;6.42;100.00;97121.50;10327727;28;20272;-52
2022/06/03 01:20:27;;;;;;;6.03;2.60;;;;;;;6.32;100.00;97128.38;10327855;28;20277;-50
2022/06/03 01:25:38;;;;;;;3.53;2.40;;;;;;;6.23;100.00;97119.50;10328721;28;20214;-52
2022/06/03 01:31:04;;;;;;;3.13;2.30;;;;;;;6.19;100.00;97115.50;10332136;28;20186;-52
2022/06/03 01:36:28;;;;;;;4.40;2.17;;;;;;;6.15;100.00;97114.91;10335075;28;20202;-51
2022/06/03 01:42:06;;;;;;;4.73;2.40;;;;;;;6.06;100.00;97119.06;10334911;28;20218;-50
2022/06/03 01:47:44;;;;;;;2.47;2.37;;;;;;;5.94;100.00;97109.56;10335216;28;20200;-50
2022/06/03 01:53:06;;;;;;;3.40;3.10;;;;;;;5.84;100.00;97099.03;10335950;28;20567;-51
2022/06/03 01:58:17;;;;;;;3.10;2.80;;;;;;;5.82;100.00;97105.28;10335548;28;20190;-51
2022/06/03 02:03:47;;;;;;;5.60;3.03;;;;;;;5.69;100.00;97108.00;10333843;28;20265;-50
2022/06/03 02:09:09;;;;;;;3.33;2.97;;;;;;;5.68;100.00;97098.53;10335291;28;20202;-53
2022/06/03 02:14:40;;;;;;;3.60;2.50;;;;;;;5.60;100.00;97096.50;10333525;28;20241;-52
2022/06/03 02:20:04;;;;;;;3.00;2.70;;;;;;;5.55;100.00;97090.84;10335023;28;20201;-51
2022/06/03 02:25:42;;;;;;;4.07;3.37;;;;;;;5.57;100.00;97091.53;10333189;28;20578;-52
2022/06/03 02:31:02;;;;;;;4.73;4.10;;;;;;;5.58;100.00;97080.22;10334503;28;20193;-52
2022/06/03 02:36:11;;;;;;;6.53;5.60;;;;;;;5.40;100.00;97081.59;10333521;28;20209;-55
2022/06/03 02:41:22;;;;;;;5.80;4.70;;;;;;;5.40;100.00;97082.41;10333352;28;20250;-55
2022/06/03 02:46:39;;;;;;;6.27;3.93;;;;;;;5.51;100.00;97073.81;10333458;28;20206;-57
2022/06/03 02:51:45;;;;;;;4.63;3.73;;;;;;;5.60;100.00;97074.91;10332193;28;20237;-55
2022/06/03 02:56:54;;;;;;;5.77;3.30;;;;;;;5.63;100.00;97085.06;10332094;28;20209;-57
2022/06/03 03:02:20;;;;;;;3.33;2.93;;;;;;;5.58;100.00;97082.81;10331225;28;20269;-51
2022/06/03 03:07:31;;;;;;;2.73;2.53;;;;;;;5.63;100.00;97079.88;10291528;28;20199;-51
2022/06/03 03:13:08;;;;;;;3.13;2.60;;;;;;;5.69;100.00;97080.22;10307350;28;20334;-51
2022/06/03 03:18:46;;;;;;;2.90;2.60;;;;;;;5.71;100.00;97082.69;10292539;28;20198;-50
2022/06/03 03:23:50;;;;;;;2.73;2.47;;;;;;;5.72;100.00;97089.56;10292127;28;20721;-51
2022/06/03 03:29:17;;;;;;;3.47;2.37;;;;;;;5.69;100.00;97093.22;10290796;28;20293;-56
2022/06/03 03:34:46;;;;;;;2.53;2.37;;;;;;;5.73;100.00;97088.63;10291848;28;20210;-56
2022/06/03 03:40:18;;;;;;;4.53;2.90;;;;;;;5.80;100.00;97087.19;10291861;28;20199;-56
2022/06/03 03:45:46;;;;;;;3.23;2.70;;;;;;;5.70;100.00;97084.47;10305946;28;20219;-53
2022/06/03 03:51:03;;;;;;;2.53;2.33;;;;;;;5.66;100.00;97084.84;10291590;28;20194;-52
2022/06/03 03:56:12;;;;;;;2.27;2.10;;;;;;;5.66;100.00;97083.06;10289407;28;20623;-52
2022/06/03 04:01:51;;;;;;;3.37;2.40;;;;;;;5.65;100.00;97090.97;10303580;28;20235;-55
2022/06/03 04:07:16;;;;;;;2.37;2.17;;;;;;;5.73;100.00;97091.22;10307884;28;20194;-51
2022/06/03 04:12:34;;;;;;;2.77;2.47;;;;;;;5.82;100.00;97105.28;10342769;23;20244;-58
2022/06/03 04:17:57;;;;;;;3.17;2.57;;;;;;;6.13;100.00;97092.56;10370728;28;20682;-56
2022/06/03 04:23:10;;;;;;;2.73;2.30;;;;;;;6.46;100.00;97088.25;10369710;28;20287;-54
2022/06/03 04:28:47;;;;;;;2.53;2.23;;;;;;;6.66;100.00;97082.31;10370676;28;20549;-56
2022/06/03 04:34:17;;;;;;;2.50;2.30;;;;;;;6.99;100.00;97064.06;10370160;28;20241;-59
2022/06/03 04:39:36;;;;;;;3.50;2.50;;;;;;;7.19;100.00;97071.06;10369486;28;20193;-55
2022/06/03 04:45:21;;;;;;;5.87;2.63;;;;;;;7.49;100.00;97074.72;10369726;28;20228;-60
2022/06/03 04:50:40;;;;;;;3.93;2.37;;;;;;;7.77;100.00;97077.59;10369994;28;20196;-59
2022/06/03 04:56:20;;;;;;;2.40;2.20;;;;;;;8.01;100.00;97075.50;10369197;28;20185;-59
2022/06/03 05:02:07;;;;;;;4.10;2.10;;;;;;;8.33;100.00;97077.13;10370068;28;20221;-56
2022/06/03 05:07:45;;;;;;;3.43;2.10;;;;;;;8.79;100.00;97071.44;10376048;28;20188;-57
2022/06/03 05:13:06;;;;;;;2.33;2.07;;;;;;;9.20;100.00;97061.69;10378381;28;20248;-54
2022/06/03 05:18:36;;;;;;;2.87;2.10;;;;;;;9.60;100.00;97066.72;10377761;28;20213;-54
2022/06/03 05:24:13;;;;;;;3.30;1.83;;;;;;;9.93;100.00;97056.69;10377387;28;20279;-57
2022/06/03 05:29:51;;;;;;;2.23;2.03;;;;;;;10.39;100.00;97045.50;10376298;28;20545;-56
2022/06/03 05:35:04;;;;;;;1.70;1.60;;;;;;;11.03;100.00;97027.94;10376087;28;20217;-55
2022/06/03 05:40:20;;;;;;;1.70;1.60;;;;;;;11.21;94.98;97007.75;10375938;28;20284;-58
2022/06/03 05:45:53;;;;;;;2.10;2.00;;;;;;;11.69;93.48;97007.38;10375252;28;20189;-54
2022/06/03 05:51:11;;;;;;;2.40;1.70;;;;;;;12.28;92.14;97003.06;10367540;28;20229;-54
2022/06/03 05:56:58;;;;;;;1.80;1.70;;;;;;;12.99;89.05;96992.13;10372039;28;20200;-56
2022/06/03 06:02:24;;;;;;;2.72;1.95;;;;;;;13.64;85.26;96956.19;10330707;28;20237;-60
2022/06/03 06:07:29;;;;;;;1.77;1.60;;;;;;;14.14;82.80;96947.09;10325605;28;20536;-60
2022/06/03 06:12:50;;;;;;;2.38;1.30;;;;;;;14.67;80.57;96941.19;10333814;28;20226;-58
2022/06/03 06:18:13;;;;;;;2.58;1.70;;;;;;;15.29;80.02;96938.31;10333840;28;20190;-60
2022/06/03 06:23:20;;;;;;;2.22;1.50;;;;;;;16.57;74.27;96879.88;10334628;28;20730;-59
2022/06/03 06:28:30;;;;;;;1.88;1.50;;;;;;;17.74;69.25;96828.06;10332896;28;20190;-61
2022/06/03 06:34:00;;;;;;;2.60;1.45;;;;;;;18.67;67.07;96818.63;10333330;28;20237;-59
2022/06/03 06:39:07;;;;;;;3.88;1.17;;;;;;;20.99;58.93;96721.81;10332749;28;20212;-61
2022/06/03 06:44:46;;;;;;;1.83;1.20;;;;;;;20.87;52.94;96622.38;10333479;28;20246;-60
2022/06/03 06:50:09;;;;;;;4.57;1.20;;;;;;;23.15;46.13;96542.75;10368709;28;20202;-61
2022/06/03 06:55:38;;;;;;;1.65;1.10;;;;;;;21.97;45.47;96508.38;10370688;28;20613;-60
2022/06/03 07:00:40;;;;;;;3.78;1.20;;;;;;;21.39;46.50;96533.94;10369463;28;20253;-59
2022/06/03 07:05:43;;;;;;;4.00;1.20;;;;;;;21.80;46.21;96553.59;10370883;28;20193;-57
2022/06/03 07:10:52;;;;;;;1.60;1.17;;;;;;;20.77;45.35;96483.69;10371574;28;20209;-59
2022/06/03 07:16:15;;;;;;;1.20;1.00;;;;;;;20.83;45.25;96509.41;10370582;28;20203;-58
2022/06/03 07:21:21;;;;;;;2.30;1.00;;;;;;;19.99;47.69;96541.09;10371891;28;20229;-58
2022/06/03 07:26:32;;;;;;;2.92;0.95;;;;;;;20.59;45.90;96508.47;10369922;28;20197;-57
2022/06/03 07:32:16;;;;;;;2.15;1.20;;;;;;;20.61;46.64;96538.31;10370938;28;20216;-59
2022/06/03 07:37:28;;;;;;;1.35;1.25;;;;;;;20.68;47.64;96568.38;10243973;28;20227;-60
2022/06/03 07:42:38;;;;;;;1.50;1.10;;;;;;;20.11;47.25;96539.34;10346324;28;20232;-57
2022/06/03 07:47:39;;;;;;;2.53;1.27;;;;;;;20.69;47.26;96566.50;10369760;28;20204;-59
2022/06/03 07:52:47;;;;;;;1.52;1.20;;;;;;;20.09;48.96;96590.09;10370297;28;20582;-59
2022/06/03 07:57:50;;;;;;;3.47;1.05;;;;;;;20.23;48.17;96566.81;10368718;28;20284;-60
2022/06/03 08:03:03;;;;;;;1.98;1.30;;;;;;;20.18;49.38;96593.25;10368661;28;20229;-59
2022/06/03 08:13:44;;;;;;;2.60;1.10;;;;;;;20.87;47.21;96560.34;10369631;28;20696;-60
2022/06/03 08:18:45;;;;;;;1.70;1.55;;;;;;;20.85;47.98;96566.69;10369326;28;20193;-57
2022/06/03 08:23:46;;;;;;;1.73;1.40;;;;;;;20.71;48.69;96609.72;10366987;28;20221;-58
2022/06/03 08:28:57;;;;;;;1.48;1.38;;;;;;;20.92;48.63;96630.53;10366502;28;20406;-58
2022/06/03 08:33:59;;;;;;;3.50;1.88;;;;;;;21.00;47.95;96595.59;10366923;28;20754;-60
2022/06/03 08:39:09;;;;;;;1.42;1.30;;;;;;;21.15;47.74;96597.06;10366123;28;20196;-61
2022/06/03 08:44:32;;;;;;;1.30;1.20;;;;;;;21.59;47.04;96580.84;10367690;28;20221;-58
2022/06/03 08:50:05;;;;;;;2.25;1.60;;;;;;;21.38;47.51;96583.78;10367207;28;20184;-58
2022/06/03 08:55:25;;;;;;;2.00;1.30;;;;;;;22.38;47.10;96621.34;10358683;28;20263;-61
2022/06/03 09:00:36;;;;;;;6.28;1.38;;;;;;;22.14;46.62;96590.34;10363100;28;20291;-59
2022/06/03 09:05:43;;;;;;;1.42;1.33;;;;;;;21.41;48.10;96603.00;10361280;28;20259;-61
2022/06/03 09:10:58;;;;;;;2.83;1.30;;;;;;;21.99;48.29;96637.00;10366834;28;20596;-61
2022/06/03 09:15:59;;;;;;;1.70;1.40;;;;;;;21.32;49.43;96639.84;10367547;28;20705;-60
2022/06/03 09:21:06;;;;;;;1.77;1.52;;;;;;;22.08;49.19;96664.13;10336539;28;20256;-61
2022/06/03 09:26:42;;;;;;;4.40;1.77;;;;;;;22.01;49.27;96668.78;10367339;28;20280;-60
2022/06/03 09:31:48;;;;;;;1.98;1.60;;;;;;;22.37;49.27;96677.63;10327115;28;20295;-60
2022/06/03 09:36:49;;;;;;;2.45;1.52;;;;;;;22.65;48.68;96674.25;10364819;28;20193;-61
2022/06/03 09:41:55;;;;;;;2.58;1.52;;;;;;;22.49;48.51;96666.94;10361655;28;20300;-60
2022/06/03 09:47:03;;;;;;;1.80;1.55;;;;;;;21.80;49.08;96640.81;10362759;28;20201;-60
2022/06/03 09:52:09;;;;;;;1.50;1.40;;;;;;;22.38;49.57;96674.72;10366880;28;20691;-61
2022/06/03 09:57:16;;;;;;;3.10;1.70;;;;;;;22.63;49.08;96665.66;10371094;28;20235;-61
2022/06/03 10:02:17;;;;;;;2.28;1.90;;;;;;;22.10;49.77;96670.06;10369156;28;20620;-61
2022/06/03 10:07:17;;;;;;;2.75;1.80;;;;;;;22.64;49.99;96696.66;10369180;28;20243;-61
2022/06/03 10:12:49;;;;;;;2.78;1.67;;;;;;;22.26;48.77;96664.00;10388880;23;20241;-59
2022/06/03 10:17:49;;;;;;;3.70;1.70;;;;;;;23.55;46.91;96636.44;10382696;28;20683;-61
2022/06/03 10:22:50;;;;;;;1.98;1.77;;;;;;;23.92;46.53;96638.66;10362055;28;20228;-60
2022/06/03 10:27:50;;;;;;;3.05;1.70;;;;;;;24.38;45.59;96624.09;10359414;28;20197;-60
2022/06/03 10:32:51;;;;;;;4.35;1.63;;;;;;;23.81;48.30;96664.41;10369926;28;20247;-61
2022/06/03 10:37:55;;;;;;;3.05;1.80;;;;;;;23.35;46.96;96602.94;10369580;28;20332;-60
2022/06/03 10:43:01;;;;;;;3.97;1.70;;;;;;;24.13;45.90;96603.13;10369852;28;20304;-60
2022/06/03 10:48:18;;;;;;;2.90;1.58;;;;;;;24.37;45.81;96593.03;10368122;28;20208;-61
2022/06/03 11:04:04;;;;;;;2.33;2.00;;;;;;;23.91;47.49;96604.97;10345739;28;20222;-58
2022/06/03 11:09:07;;;;;;;3.83;1.90;;;;;;;24.01;46.41;96578.31;10346365;28;20210;-60
2022/06/03 11:14:33;;;;;;;3.10;1.90;;;;;;;23.65;48.24;96620.56;10334363;28;20222;-59
2022/06/03 11:19:37;;;;;;;2.20;2.00;;;;;;;23.73;47.77;96598.75;10348819;28;20252;-61
2022/06/03 11:24:38;;;;;;;3.03;2.05;;;;;;;23.66;48.48;96592.75;10368075;28;20225;-60
2022/06/03 11:29:40;;;;;;;3.60;2.10;;;;;;;23.78;47.06;96566.75;10367270;28;20197;-60
2022/06/03 11:34:46;;;;;;;5.10;2.20;;;;;;;24.19;48.33;96587.97;10366376;28;20271;-61
2022/06/03 11:39:53;;;;;;;2.55;2.10;;;;;;;24.44;47.26;96558.03;10366715;28;20213;-60
2022/06/03 11:45:04;;;;;;;3.50;1.65;;;;;;;26.65;44.83;96581.34;10366447;28;20241;-60
2022/06/03 11:50:07;;;;;;;1.65;1.52;;;;;;;26.67;42.67;96503.19;10381879;28;20201;-60
2022/06/03 11:55:07;;;;;;;2.08;1.58;;;;;;;28.23;41.61;96503.69;10364734;28;20683;-59
2022/06/03 12:00:12;;;;;;;2.90;1.80;;;;;;;26.83;43.13;96490.59;10366703;28;20197;-60
2022/06/03 12:05:21;;;;;;;3.58;1.95;;;;;;;26.09;43.23;96457.56;10365425;28;20480;-62
2022/06/03 12:10:46;;;;;;;1.70;1.60;;;;;;;26.92;42.77;96478.22;10340341;28;20205;-62
2022/06/03 12:16:00;;;;;;;3.28;1.80;;;;;;;27.44;42.24;96478.28;10327346;28;20241;-62
2022/06/03 12:21:04;;;;;;;4.18;1.85;;;;;;;27.66;40.75;96422.28;10325700;28;20628;-62
2022/06/03 12:26:13;;;;;;;4.32;1.67;;;;;;;26.66;45.31;96523.06;10359531;28;20270;-62
2022/06/03 12:31:19;;;;;;;1.73;1.60;;;;;;;27.09;43.36;96477.19;10324574;28;20649;-62
2022/06/03 12:36:37;;;;;;;8.00;2.10;;;;;;;26.62;42.25;96409.91;10324936;28;20237;-62
2022/06/03 12:41:45;;;;;;;2.85;1.70;;;;;;;26.59;44.69;96495.63;10325241;28;20241;-61
2022/06/03 12:46:45;;;;;;;3.38;1.70;;;;;;;26.02;42.79;96422.94;10325216;28;20469;-61
2022/06/03 12:51:57;;;;;;;3.85;1.80;;;;;;;27.62;40.73;96413.13;10323966;28;20305;-61
2022/06/03 12:57:05;;;;;;;3.90;1.60;;;;;;;27.18;41.86;96449.50;10354897;28;20655;-61
2022/06/03 13:02:16;;;;;;;4.10;1.75;;;;;;;27.46;40.04;96373.88;10365095;28;20225;-61
2022/06/03 13:07:25;;;;;;;2.65;1.63;;;;;;;27.15;41.70;96407.00;10363234;28;20193;-61
2022/06/03 13:12:48;;;;;;;3.05;1.40;;;;;;;27.67;40.36;96390.78;10339444;28;20230;-61
2022/06/03 13:17:59;;;;;;;5.25;1.70;;;;;;;27.26;39.63;96361.25;10324292;28;20569;-59
2022/06/03 13:23:00;;;;;;;3.17;1.60;;;;;;;26.68;40.55;96365.88;10322979;28;20676;-59
2022/06/03 13:28:21;;;;;;;1.38;1.27;;;;;;;28.24;39.53;96410.22;10351858;28;20205;-61
2022/06/03 13:33:21;;;;;;;1.50;1.40;;;;;;;28.86;36.98;96340.53;10368072;28;20255;-60
2022/06/03 13:38:27;;;;;;;3.20;1.57;;;;;;;26.88;39.23;96326.63;10365975;28;20288;-61
2022/06/03 13:43:27;;;;;;;15.20;7.40;;;;;;;26.05;41.82;96386.69;10363655;28;20594;-59
2022/06/03 13:48:44;;;;;;;5.65;1.70;;;;;;;27.91;38.64;96350.56;10365971;28;20193;-61
2022/06/03 13:53:49;;;;;;;5.25;1.48;;;;;;;29.63;36.54;96331.69;10368984;28;20259;-60
2022/06/03 13:58:50;;;;;;;1.90;1.48;;;;;;;27.14;39.13;96308.56;10364991;28;20200;-60
2022/06/03 14:04:02;;;;;;;3.78;1.30;;;;;;;25.48;42.23;96370.31;10370860;28;20790;-61
2022/06/03 14:09:28;;;;;;;4.15;1.70;;;;;;;27.63;39.86;96362.78;10369097;28;20193;-61
2022/06/03 14:14:36;;;;;;;3.60;1.30;;;;;;;28.97;37.02;96330.47;10368948;28;20324;-61
2022/06/03 14:19:52;;;;;;;3.40;1.60;;;;;;;28.71;36.52;96311.81;10369225;28;20200;-61
2022/06/03 14:25:18;;;;;;;5.53;1.50;;;;;;;28.08;38.41;96342.16;10368280;28;20260;-61
2022/06/03 14:30:26;;;;;;;2.95;1.70;;;;;;;27.65;39.01;96358.75;10350336;28;20212;-59
2022/06/03 14:35:30;;;;;;;5.32;1.60;;;;;;;26.60;40.04;96336.00;10369482;28;20224;-60
2022/06/03 14:40:35;;;;;;;2.78;1.50;;;;;;;27.67;39.24;96359.31;10368724;28;20186;-61
2022/06/03 14:45:41;;;;;;;1.70;1.38;;;;;;;28.58;37.65;96328.63;10368035;28;20216;-61
2022/06/03 14:50:47;;;;;;;2.00;1.60;;;;;;;27.35;39.63;96336.25;10368287;28;20194;-60
2022/06/03 14:55:55;;;;;;;5.10;2.00;;;;;;;25.48;43.01;96370.31;10366039;28;20798;-60
2022/06/03 15:01:19;;;;;;;3.08;1.58;;;;;;;24.86;44.82;96406.63;10369246;28;20711;-58
2022/06/03 15:06:27;;;;;;;2.17;1.92;;;;;;;24.23;46.11;96412.41;10366527;28;20196;-61
2022/06/03 15:11:44;;;;;;;6.07;1.60;;;;;;;25.41;43.38;96380.50;10367189;28;20751;-61
2022/06/03 15:16:54;;;;;;;4.78;1.70;;;;;;;26.22;42.97;96383.78;10368457;28;20192;-60
2022/06/03 15:21:54;;;;;;;6.40;1.85;;;;;;;26.51;41.49;96344.63;10368602;28;20225;-58
2022/06/03 15:26:56;;;;;;;3.92;1.73;;;;;;;26.68;41.55;96343.59;10383297;28;20571;-61
2022/06/03 15:31:57;;;;;;;4.78;1.90;;;;;;;26.80;40.63;96305.66;10382134;28;20292;-60
2022/06/03 15:36:57;;;;;;;7.32;1.80;;;;;;;27.27;39.46;96293.75;10365955;28;20342;-59
2022/06/03 15:41:59;;;;;;;2.63;1.67;;;;;;;28.21;39.54;96329.94;10367296;28;20243;-60
2022/06/03 15:47:05;;;;;;;13.93;7.68;;;;;;;26.50;40.56;96273.16;10366963;28;20288;-60
2022/06/03 15:52:10;;;;;;;10.10;5.43;;;;;;;25.51;41.74;96270.56;10365932;28;20227;-61
2022/06/03 15:57:35;;;;;;;2.45;1.75;;;;;;;26.92;41.91;96325.00;10366992;28;20727;-61
2022/06/03 16:02:58;;;;;;;16.92;9.80;;;;;;;25.85;43.13;96320.28;10364262;28;20232;-61
2022/06/03 16:08:02;;;;;;;13.32;6.80;;;;;;;24.69;44.33;96305.75;10361458;28;20533;-57
2022/06/03 16:13:13;;;;;;;3.95;2.33;;;;;;;24.90;44.72;96346.91;10364704;28;20244;-61
2022/06/03 16:18:28;;;;;;;3.38;1.58;;;;;;;26.11;43.73;96353.41;10361133;28;20197;-61
2022/06/03 16:23:40;;;;;;;3.83;1.90;;;;;;;26.24;41.52;96295.72;10334545;28;20260;-58
2022/06/03 16:28:58;;;;;;;4.50;2.58;;;;;;;26.12;45.03;96396.09;10335482;28;20272;-62
2022/06/03 16:34:17;;;;;;;2.97;1.80;;;;;;;26.16;45.02;96399.09;10344053;28;20209;-60
2022/06/03 16:39:28;;;;;;;3.88;2.08;;;;;;;25.92;46.25;96431.69;10349886;28;20199;-61
2022/06/03 16:44:41;;;;;;;3.92;1.90;;;;;;;25.07;45.47;96370.06;10382310;28;20573;-60
2022/06/03 16:50:04;;;;;;;3.03;2.08;;;;;;;24.67;47.88;96416.88;10367242;28;20565;-57
2022/06/03 16:55:09;;;;;;;4.68;2.30;;;;;;;25.04;47.36;96424.97;10366876;28;20213;-61
2022/06/03 17:00:12;;;;;;;5.32;2.28;;;;;;;24.87;47.56;96417.06;10369686;28;20631;-61
2022/06/03 17:05:15;;;;;;;7.57;2.65;;;;;;;25.12;48.35;96460.44;10375100;28;20233;-60
2022/06/03 17:10:20;;;;;;;4.93;1.85;;;;;;;24.98;47.63;96433.22;10374905;28;20687;-61
2022/06/03 17:15:21;;;;;;;10.18;9.18;;;;;;;24.74;49.71;96482.59;10373088;28;20261;-60
2022/06/03 17:20:21;;;;;;;2.67;1.88;;;;;;;24.68;49.02;96445.28;10374815;28;20631;-60
2022/06/03 17:25:31;;;;;;;1.90;1.80;;;;;;;24.57;49.58;96457.75;10374252;28;20241;-60
2022/06/03 17:30:36;;;;;;;2.63;1.77;;;;;;;24.48;49.13;96457.38;10374234;28;20197;-58
2022/06/03 17:36:09;;;;;;;85.10;52.38;;;;;;;24.27;51.85;96507.22;10374365;28;20213;-61
2022/06/03 17:41:29;;;;;;;45.35;29.73;;;;;;;24.22;51.00;96483.88;10373843;28;20588;-61
2022/06/03 17:46:39;;;;;;;10.88;6.75;;;;;;;23.96;52.23;96500.66;10373509;28;20199;-61
2022/06/03 17:57:19;;;;;;;1.88;1.70;;;;;;;23.64;52.46;96490.56;10372351;28;20205;-60
2022/06/03 18:03:02;;;;;;;5.45;2.17;;;;;;;23.45;52.31;96473.97;10372747;28;20233;-60
2022/06/03 18:08:38;;;;;;;3.25;2.72;;;;;;;23.33;53.15;96482.88;10372811;28;20652;-60
2022/06/03 18:13:50;;;;;;;4.28;1.90;;;;;;;23.17;53.52;96477.53;10370058;28;20595;-60
2022/06/03 18:18:51;;;;;;;3.03;2.40;;;;;;;22.91;55.18;96517.16;10372806;28;20197;-58
2022/06/03 18:24:00;;;;;;;15.45;9.75;;;;;;;22.64;56.69;96540.97;10368798;28;20229;-57
2022/06/03 18:29:05;;;;;;;10.73;6.75;;;;;;;22.26;59.41;96604.50;10352502;28;20430;-58
2022/06/03 18:34:33;;;;;;;6.57;4.80;;;;;;;21.92;60.89;96620.28;10348278;28;20201;-57
2022/06/03 18:39:45;;;;;;;26.35;14.15;;;;;;;21.17;64.83;96658.91;10346263;28;20222;-59
2022/06/03 18:45:00;;;;;;;60.53;35.53;;;;;;;20.51;69.12;96647.97;10349146;28;20218;-59
2022/06/03 18:50:11;;;;;;;27.42;16.00;;;;;;;19.91;71.01;96628.09;10338093;28;20660;-55
2022/06/03 18:55:23;;;;;;;10.80;7.75;;;;;;;19.33;74.07;96620.34;10329073;28;20241;-57
2022/06/03 19:00:32;;;;;;;10.68;6.18;;;;;;;18.86;76.90;96626.69;10327217;28;20190;-53
2022/06/03 19:05:42;;;;;;;15.27;12.30;;;;;;;18.71;77.97;96618.16;10327983;28;20241;-58
2022/06/03 19:11:06;;;;;;;5.90;3.42;;;;;;;18.47;79.34;96625.78;10352646;28;20242;-54
2022/06/03 19:16:40;;;;;;;4.15;3.45;;;;;;;18.21;83.46;96641.75;10368890;28;20247;-54
2022/06/03 19:22:05;;;;;;;5.32;4.75;;;;;;;18.27;83.55;96641.75;10360264;28;20230;-58
2022/06/03 19:27:14;;;;;;;8.15;5.68;;;;;;;18.13;83.87;96633.00;10369214;28;20211;-54
2022/06/03 19:32:26;;;;;;;9.93;5.95;;;;;;;17.97;84.85;96646.69;10368820;28;20209;-56
2022/06/03 19:37:44;;;;;;;14.55;9.90;;;;;;;17.85;86.83;96651.75;10368608;28;20276;-57
2022/06/03 19:43:13;;;;;;;7.82;5.25;;;;;;;17.54;90.86;96660.31;10369240;28;20228;-58
2022/06/03 19:48:29;;;;;;;23.65;15.02;;;;;;;17.45;92.29;96655.19;10367020;28;20249;-56
2022/06/03 19:53:42;;;;;;;34.85;28.38;;;;;;;17.51;94.51;96653.56;10375661;28;20247;-54
2022/06/03 19:58:56;;;;;;;6.75;5.10;;;;;;;17.32;93.58;96649.88;10366931;28;20220;-56
2022/06/03 20:04:11;;;;;;;8.18;5.47;;;;;;;17.31;95.55;96650.09;10367750;28;20248;-57
2022/06/03 20:09:24;;;;;;;7.50;4.30;;;;;;;17.17;95.32;96641.28;10365371;28;20260;-57
2022/06/03 20:14:35;;;;;;;10.05;7.25;;;;;;;16.99;98.54;96629.41;10366186;28;20897;-59
2022/06/03 20:19:48;;;;;;;7.15;4.47;;;;;;;16.69;100.00;96626.22;10367896;28;20647;-58
2022/06/03 20:25:02;;;;;;;6.88;4.45;;;;;;;16.73;100.00;96623.00;10367249;28;20229;-57
2022/06/03 20:30:21;;;;;;;4.78;4.18;;;;;;;16.76;100.00;96625.25;10366362;28;20197;-58
2022/06/03 20:35:46;;;;;;;4.30;3.90;;;;;;;16.92;98.49;96615.34;10365875;28;20209;-58
2022/06/03 20:41:02;;;;;;;4.65;3.78;;;;;;;17.02;97.83;96618.44;10353570;28;20252;-58
2022/06/03 20:46:28;;;;;;;4.55;4.10;;;;;;;16.59;100.00;96622.13;10365976;28;20209;-58
2022/06/03 20:51:35;;;;;;;7.45;5.07;;;;;;;16.84;100.00;96634.81;10366092;28;20252;-58
2022/06/03 20:56:37;;;;;;;6.40;4.40;;;;;;;16.79;98.40;96628.53;10366990;28;20674;-56
2022/06/03 21:01:40;;;;;;;6.70;4.30;;;;;;;16.54;100.00;96629.03;10366666;28;20658;-55
2022/06/03 21:17:19;;;;;;;6.47;4.55;;;;;;;16.67;98.65;96607.91;10366372;28;20197;-55
2022/06/03 21:22:57;;;;;;;6.22;5.10;;;;;;;16.63;97.63;96598.75;10366531;28;20221;-52
2022/06/03 21:27:57;;;;;;;6.07;4.63;;;;;;;16.70;96.93;96591.63;10366301;28;20233;-51
2022/06/03 21:33:06;;;;;;;6.90;4.88;;;;;;;16.73;96.33;96590.44;10365973;28;20229;-55
2022/06/03 21:38:17;;;;;;;6.72;4.75;;;;;;;16.74;95.58;96594.72;10364755;28;20209;-53
2022/06/03 21:43:29;;;;;;;7.47;4.63;;;;;;;16.78;94.69;96588.00;10364831;28;20283;-51
2022/06/03 21:48:59;;;;;;;8.27;4.53;;;;;;;16.87;94.10;96588.69;10370799;28;20238;-55
2022/06/03 21:54:30;;;;;;;5.18;4.10;;;;;;;16.92;93.52;96592.38;10373675;28;20221;-55
2022/06/03 21:59:37;;;;;;;12.40;4.65;;;;;;;16.87;94.27;96596.63;10373166;28;20273;-54
2022/06/03 22:04:38;;;;;;;7.30;4.85;;;;;;;16.96;94.79;96598.06;10372723;28;20580;-53
2022/06/03 22:09:38;;;;;;;5.65;4.25;;;;;;;16.77;95.69;96605.72;10372810;28;20189;-51
2022/06/03 22:14:39;;;;;;;6.90;4.50;;;;;;;16.75;96.93;96609.56;10371940;28;20323;-52
2022/06/03 22:19:39;;;;;;;5.70;4.07;;;;;;;16.81;97.47;96614.06;10372199;28;20204;-55
2022/06/03 22:24:39;;;;;;;6.00;4.05;;;;;;;16.85;96.64;96611.84;10371887;28;20226;-57
2022/06/03 22:30:06;;;;;;;8.10;4.50;;;;;;;16.93;96.71;96627.56;10372366;28;20664;-59
2022/06/03 22:35:24;;;;;;;7.57;4.60;;;;;;;16.73;100.00;96627.47;10369971;28;20590;-59
2022/06/03 22:40:39;;;;;;;9.07;4.70;;;;;;;16.24;100.00;96647.75;10370308;28;20620;-56
2022/06/03 22:45:39;;;;;;;4.07;3.50;;;;;;;16.23;100.00;96675.19;10369781;28;20695;-59
2022/06/03 22:50:39;;;;;;;4.18;3.78;;;;;;;16.87;100.00;96679.44;10370910;28;20194;-58
2022/06/03 22:55:41;;;;;;;8.45;4.07;;;;;;;16.19;100.00;96703.03;10370558;28;20231;-60
2022/06/03 23:00:42;;;;;;;5.20;4.70;;;;;;;15.85;100.00;96707.25;10370307;28;20193;-60
2022/06/03 23:05:43;;;;;;;6.25;5.28;;;;;;;15.59;100.00;96708.59;10370045;28;20229;-60
2022/06/03 23:10:43;;;;;;;7.80;5.97;;;;;;;15.40;100.00;96722.41;10370408;28;20196;-60
2022/06/03 23:15:44;;;;;;;8.43;6.18;;;;;;;15.17;100.00;96733.91;10369608;28;20241;-60
2022/06/03 23:20:47;;;;;;;9.57;7.47;;;;;;;15.12;100.00;96729.19;10369754;28;20547;-59
2022/06/03 23:25:49;;;;;;;13.68;9.38;;;;;;;15.03;100.00;96729.50;10369748;28;20225;-59
2022/06/03 23:30:49;;;;;;;12.43;10.10;;;;;;;15.02;100.00;96733.94;10369333;28;20195;-59
2022/06/03 23:35:50;;;;;;;20.42;13.68;;;;;;;15.05;100.00;96732.75;10368798;28;20227;-59
2022/06/03 23:40:51;;;;;;;12.85;10.35;;;;;;;14.98;100.00;96724.78;10368889;28;20240;-59
2022/06/03 23:45:51;;;;;;;12.68;11.57;;;;;;;14.62;100.00;96718.44;10368728;28;20233;-58
2022/06/03 23:50:52;;;;;;;12.43;11.32;;;;;;;14.63;100.00;96724.50;10368921;28;20189;-54
2022/06/03 23:55:54;;;;;;;12.48;11.18;;;;;;;14.75;100.00;96727.53;10368386;28;20201;-58
